Airfield :
LOGIN :

Register | Disclaimer

   EN    FR    IT 

 










Legend :    VFR   Marginal VFR   IFR   Intensive IFR   Very Intensive IFR
Visi :
Ceiling :
>= 8 km
>= 3000ft
5 to 8 km
1000 to 3000 ft
1500m to 5 km
500 to 1000 ft
800 to 1500m
200 to 500 ft
< 800m
< 200 ft
Symbols :   Thunderstorms  Fog  Heavy snow  Heavy precipitations  Wind > 20 kt
SIGMETs :     Misc.  Thunderstorms  Icing  Turbulence  Mountain Waves  Volcanic Ashes







- Airport Elevation : 80 ft
- IATA code : LPL
- Download approach charts


EGGP - Liverpool John Lennon

CURRENT METAR :
  • 181820Z 14012KT 110V170 9999 BKN011 03/01 Q1009

EXPIRED METARs :
  • 181750Z 15014G24KT 9999 BKN016 04/01 Q1009
  • 181720Z 14012KT 9999 FEW012 SCT019 03/01 Q1009
  • 181650Z 14013KT 9999 SCT010 BKN021 04/01 Q1009
  • 181620Z 14011KT 100V170 9999 BKN010 03/01 Q1009
  • 181550Z 15014KT 9999 VCSH BKN015 04/02 Q1009

TAF TAF EGGP
Valid from the 18 at 18:00 until the 19 at 18:00 UTC


181701Z 1818/1918 13011KT 9999 SCT008 BKN016
TEMPO 1818/1918 6000 -RA BKN008
PROB40
TEMPO 1818/1918 4000 RADZ BKN004
ATIS : +44 151 907 2000 (option 5 or ext 5150)
Met : +44 871 750 5150
No reported NOTAMs for that airfield.



MET'MAP, your aeronautical weather chart ! - Copyright ORBIFLY December 2007 - Disclaimer

ORBIFLY MET'MAP TEAM :

Programming & Development : Alexandra Zaïnal
Concept & Development : Baudouin d'Aumeries
Co-Development & Prog : Marc-Olivier Méhu
Technical & hardware support : Manuel Goepfert

Contact : metmap@orbifly.com




SOURCES & CREDITS :

   NOAA